Time;durP1;ratioP1;P1;durP2;ratioP2;P2;SDS_P1;SDS_P2;PMS_P1;PMS_P2;Temp;Humidity;BMP_temperature;BMP_pressure;BME280_temperature;BME280_humidity;BME280_pressure;Samples;Min_cycle;Max_cycle;Signal;HPM_P1;HPM_P2
2023/03/04 00:01:47;;;;;;;4.22;1.70;;;;;;;4.37;77.53;102558.44;5032641;28;20036;-80
2023/03/04 00:04:12;;;;;;;1.90;1.40;;;;;;;4.36;77.94;102570.44;5031420;28;20032;-80
2023/03/04 00:06:37;;;;;;;2.72;1.40;;;;;;;4.33;77.63;102557.47;5032637;28;20020;-81
2023/03/04 00:09:05;;;;;;;2.38;1.23;;;;;;;4.42;77.64;102573.22;5032535;28;20493;-81
2023/03/04 00:11:31;;;;;;;2.65;1.35;;;;;;;4.42;77.76;102573.22;5031929;28;20381;-81
2023/03/04 00:13:57;;;;;;;3.00;1.70;;;;;;;4.43;78.26;102577.56;5032441;28;20109;-81
2023/03/04 00:16:26;;;;;;;1.20;1.08;;;;;;;4.43;78.55;102577.56;5032039;28;20053;-80
2023/03/04 00:18:55;;;;;;;2.15;1.35;;;;;;;4.42;78.06;102572.38;5011804;28;20045;-80
2023/03/04 00:21:20;;;;;;;4.45;1.38;;;;;;;4.39;78.40;102562.81;5012830;28;20028;-81
2023/03/04 00:23:46;;;;;;;4.07;1.38;;;;;;;4.43;77.91;102564.69;5012324;28;20116;-80
2023/03/04 00:26:12;;;;;;;3.35;1.40;;;;;;;4.42;78.37;102568.09;5011884;28;20478;-80
2023/03/04 00:28:38;;;;;;;1.88;1.20;;;;;;;4.43;78.35;102567.25;5012948;28;20022;-80
2023/03/04 00:31:04;;;;;;;6.03;1.60;;;;;;;4.38;79.21;102561.09;5011959;28;20104;-80
2023/03/04 00:33:29;;;;;;;9.02;2.38;;;;;;;4.40;78.67;102563.72;5012857;28;20442;-81
2023/03/04 00:35:55;;;;;;;7.20;2.20;;;;;;;4.37;78.60;102558.44;5012014;28;20026;-80
2023/03/04 00:38:23;;;;;;;8.05;2.30;;;;;;;4.35;79.04;102565.22;5012045;28;20109;-80
2023/03/04 00:40:48;;;;;;;7.22;2.30;;;;;;;4.37;78.54;102569.63;5012333;28;20022;-81
2023/03/04 00:43:13;;;;;;;12.90;2.80;;;;;;;4.33;79.19;102562.59;5012925;28;20026;-81
2023/03/04 00:45:39;;;;;;;11.40;2.75;;;;;;;4.35;78.47;102568.69;5012240;28;20053;-81
2023/03/04 00:48:07;;;;;;;11.03;2.90;;;;;;;4.32;79.12;102556.59;5030820;28;20481;-81
2023/03/04 00:50:32;;;;;;;7.15;2.30;;;;;;;4.32;78.97;102556.59;5032141;28;20069;-81
2023/03/04 00:52:57;;;;;;;8.13;2.40;;;;;;;4.36;78.95;102560.16;5031252;28;20488;-80
2023/03/04 00:55:23;;;;;;;7.80;2.25;;;;;;;4.33;79.20;102557.47;5032111;28;20033;-81
2023/03/04 00:57:49;;;;;;;10.75;2.60;;;;;;;4.31;79.48;102561.66;5032070;28;20034;-80
2023/03/04 01:00:14;;;;;;;11.00;2.50;;;;;;;4.28;79.19;102558.97;5031052;28;20028;-81
2023/03/04 01:02:40;;;;;;;10.13;2.40;;;;;;;4.30;79.33;102557.31;5031838;28;20029;-81
2023/03/04 01:05:06;;;;;;;6.67;2.10;;;;;;;4.30;79.21;102565.94;5031896;28;20022;-81
2023/03/04 01:07:32;;;;;;;6.88;2.33;;;;;;;4.30;79.74;102562.47;5031084;28;20218;-81
2023/03/04 01:09:57;;;;;;;12.63;2.80;;;;;;;4.27;79.76;102560.66;5031801;28;20489;-81
2023/03/04 01:12:22;;;;;;;12.32;2.75;;;;;;;4.29;79.88;102571.88;5028491;28;20478;-81
2023/03/04 01:14:50;;;;;;;9.25;2.40;;;;;;;4.27;80.21;102575.22;5011716;28;20144;-81
2023/03/04 01:17:16;;;;;;;9.13;2.70;;;;;;;4.26;79.37;102568.34;5015250;28;20067;-80
2023/03/04 01:19:41;;;;;;;11.52;2.42;;;;;;;4.28;80.16;102574.38;5015845;28;20038;-81
2023/03/04 01:22:07;;;;;;;14.57;2.90;;;;;;;4.28;80.01;102570.13;5014782;28;20104;-80
2023/03/04 01:25:07;;;;;;;13.70;2.83;;;;;;;4.27;80.25;102572.66;5015934;28;20479;-81
2023/03/04 01:27:35;;;;;;;9.25;2.67;;;;;;;4.25;80.14;102562.28;5014766;28;20153;-81
2023/03/04 01:30:01;;;;;;;11.73;2.75;;;;;;;4.27;80.19;102567.50;5014971;28;20069;-81
2023/03/04 01:32:26;;;;;;;6.47;2.35;;;;;;;4.25;80.33;102559.72;5015534;28;20125;-81
2023/03/04 01:34:52;;;;;;;11.80;2.75;;;;;;;4.22;80.52;102553.59;5014532;28;20022;-81
2023/03/04 01:37:17;;;;;;;5.60;2.10;;;;;;;4.24;80.13;102554.53;5015026;28;20034;-81
2023/03/04 01:39:42;;;;;;;9.80;2.10;;;;;;;4.25;80.30;102559.72;5015786;28;20028;-81
2023/03/04 01:42:20;;;;;;;7.35;2.10;;;;;;;4.22;80.29;102553.59;5014226;28;20034;-81
2023/03/04 01:44:46;;;;;;;9.98;2.10;;;;;;;4.23;80.45;102556.22;5014910;28;20397;-80
2023/03/04 01:47:13;;;;;;;8.15;2.00;;;;;;;4.23;79.95;102550.22;5015300;28;20030;-81
2023/03/04 01:49:40;;;;;;;13.27;2.77;;;;;;;4.21;80.44;102546.69;5014404;28;20077;-81
2023/03/04 01:52:11;;;;;;;12.23;2.30;;;;;;;4.21;80.56;102539.00;5015129;28;20036;-81
2023/03/04 01:54:36;;;;;;;12.15;2.70;;;;;;;4.19;80.66;102533.81;5015126;28;20030;-80
2023/03/04 01:57:15;;;;;;;7.75;1.95;;;;;;;4.21;80.98;102537.31;5014646;28;20026;-80
2023/03/04 01:59:40;;;;;;;12.38;2.38;;;;;;;4.20;80.73;102532.09;5014924;28;20030;-80
2023/03/04 02:02:05;;;;;;;6.07;2.03;;;;;;;4.17;80.60;102527.72;5014560;28;20072;-80
2023/03/04 02:04:33;;;;;;;8.57;2.60;;;;;;;4.21;80.66;102526.13;5014416;28;20108;-81
2023/03/04 02:07:00;;;;;;;12.23;2.40;;;;;;;4.17;80.82;102514.88;5014780;28;20038;-80
2023/03/04 02:09:25;;;;;;;8.13;2.13;;;;;;;4.21;80.93;102527.03;5013941;28;20038;-80
2023/03/04 02:11:51;;;;;;;8.43;2.33;;;;;;;4.20;80.77;102517.56;4997164;28;20384;-80
2023/03/04 02:14:19;;;;;;;7.03;1.90;;;;;;;4.21;80.83;102521.91;5014756;28;20436;-80
2023/03/04 02:16:45;;;;;;;6.45;1.80;;;;;;;4.21;80.86;102518.44;5014053;28;20026;-80
2023/03/04 02:19:39;;;;;;;11.10;2.00;;;;;;;4.20;81.00;102517.56;5014976;28;20439;-81
2023/03/04 02:22:04;;;;;;;11.88;2.47;;;;;;;4.12;81.14;102507.00;4988762;28;20034;-80
2023/03/04 02:24:38;;;;;;;10.02;2.40;;;;;;;4.16;81.51;102519.16;5014075;28;20034;-80
2023/03/04 02:27:03;;;;;;;7.32;2.28;;;;;;;4.15;81.09;102512.25;5014780;28;20113;-80
2023/03/04 02:29:29;;;;;;;6.32;1.83;;;;;;;4.17;81.46;102514.88;5014738;28;20117;-81
2023/03/04 02:31:54;;;;;;;7.90;2.20;;;;;;;4.18;81.22;102508.91;5013715;28;20536;-80
2023/03/04 02:34:28;;;;;;;4.90;1.70;;;;;;;4.20;81.20;102506.41;5014102;28;20531;-80
2023/03/04 02:36:55;;;;;;;2.03;1.10;;;;;;;4.20;81.04;102507.28;5014101;28;20018;-81
2023/03/04 02:39:43;;;;;;;3.45;1.42;;;;;;;4.22;80.76;102507.34;5013529;28;20025;-80
2023/03/04 02:42:08;;;;;;;7.70;2.10;;;;;;;4.16;82.36;102508.88;5014147;28;20026;-80
2023/03/04 02:44:39;;;;;;;6.55;2.20;;;;;;;4.12;82.23;102499.28;5014009;28;20034;-80
2023/03/04 02:47:08;;;;;;;7.70;1.92;;;;;;;4.17;81.66;102495.19;5013854;28;20152;-81
2023/03/04 02:49:35;;;;;;;9.95;1.98;;;;;;;4.14;81.85;102497.66;5013900;28;20061;-81
2023/03/04 02:52:09;;;;;;;8.52;2.20;;;;;;;4.12;82.04;102499.28;5012920;28;20022;-80
2023/03/04 02:54:34;;;;;;;8.73;2.63;;;;;;;4.05;82.39;102488.72;5014006;28;20029;-81
2023/03/04 02:57:03;;;;;;;11.80;2.67;;;;;;;4.07;82.38;102493.06;5014686;28;20029;-81
2023/03/04 02:59:29;;;;;;;12.35;2.25;;;;;;;4.09;82.27;102491.44;5013419;28;20022;-81
2023/03/04 03:01:58;;;;;;;10.15;2.28;;;;;;;4.08;82.33;102493.97;5013678;28;20029;-81
2023/03/04 03:04:25;;;;;;;9.38;2.35;;;;;;;4.09;82.08;102480.31;5013835;28;20037;-81
2023/03/04 03:06:50;;;;;;;7.40;2.05;;;;;;;4.08;81.75;102474.28;5012799;28;20029;-80
2023/03/04 03:09:16;;;;;;;12.95;2.42;;;;;;;4.08;82.20;102481.97;5014025;28;20029;-80
2023/03/04 03:11:42;;;;;;;11.32;2.15;;;;;;;4.09;82.17;102478.59;5013492;28;20026;-81
2023/03/04 03:14:07;;;;;;;9.65;2.28;;;;;;;4.08;81.87;102470.84;5012331;28;20025;-81
2023/03/04 03:16:33;;;;;;;7.38;2.00;;;;;;;4.09;81.87;102473.47;5013273;28;20390;-80
2023/03/04 03:18:58;;;;;;;6.80;2.00;;;;;;;4.10;81.54;102477.78;5013207;28;20474;-80
2023/03/04 03:21:24;;;;;;;9.18;2.10;;;;;;;4.13;81.40;102474.44;5013024;28;20048;-81
2023/03/04 03:23:49;;;;;;;10.43;2.20;;;;;;;4.10;82.20;102471.78;5013224;28;20492;-81
2023/03/04 03:26:18;;;;;;;14.68;2.53;;;;;;;4.14;82.39;102484.81;5172791;23;20046;-81
2023/03/04 03:28:43;;;;;;;9.13;2.08;;;;;;;4.11;82.60;102476.97;5011576;28;20030;-81
2023/03/04 03:31:08;;;;;;;7.72;1.98;;;;;;;4.13;82.21;102483.06;5013451;28;20113;-81
2023/03/04 03:33:34;;;;;;;4.10;1.55;;;;;;;4.10;82.15;102470.06;5013252;28;20034;-81
2023/03/04 03:36:03;;;;;;;4.25;1.50;;;;;;;4.14;82.02;102474.53;5012621;28;20037;-81
2023/03/04 03:38:28;;;;;;;4.50;1.60;;;;;;;4.12;83.22;102478.72;5012799;28;20140;-81
2023/03/04 03:40:53;;;;;;;4.70;1.60;;;;;;;4.10;83.20;102470.06;5012126;28;20129;-81
2023/03/04 03:43:19;;;;;;;7.60;2.10;;;;;;;4.05;82.70;102469.03;5013277;28;20075;-81
2023/03/04 03:45:44;;;;;;;10.07;2.30;;;;;;;4.06;82.55;102469.91;5013482;28;20073;-81
2023/03/04 03:48:10;;;;;;;8.77;2.10;;;;;;;4.05;82.42;102469.03;5012383;28;20348;-81
2023/03/04 03:50:35;;;;;;;12.50;2.87;;;;;;;4.01;81.76;102465.47;5013504;28;20022;-81
2023/03/04 03:53:00;;;;;;;11.13;2.80;;;;;;;4.02;81.78;102463.78;5013062;28;20466;-81
2023/03/04 03:55:26;;;;;;;11.03;2.30;;;;;;;4.04;81.83;102467.28;5012510;28;20018;-81
2023/03/04 03:57:51;;;;;;;10.70;2.35;;;;;;;4.02;81.55;102462.06;5012771;28;20484;-81
2023/03/04 04:00:17;;;;;;;8.85;2.22;;;;;;;4.05;82.26;102460.44;5013164;28;20036;-81
2023/03/04 04:02:42;;;;;;;8.68;2.30;;;;;;;4.06;82.42;102467.34;5012487;28;20378;-82
2023/03/04 04:05:09;;;;;;;6.30;1.90;;;;;;;4.07;81.85;102472.53;5012893;28;20021;-81
2023/03/04 04:07:35;;;;;;;2.22;1.48;;;;;;;4.05;82.25;102463.00;5013234;28;20033;-81
2023/03/04 04:10:02;;;;;;;5.18;1.70;;;;;;;4.09;82.54;102472.59;5012133;28;20041;-81
2023/03/04 04:12:27;;;;;;;10.70;2.67;;;;;;;4.02;83.11;102464.66;5013084;28;20026;-81
2023/03/04 04:14:52;;;;;;;7.63;2.22;;;;;;;4.06;82.28;102475.91;5012707;28;20080;-81
2023/03/04 04:17:18;;;;;;;6.88;1.80;;;;;;;4.07;82.28;102461.38;5012132;28;20034;-81
2023/03/04 04:19:43;;;;;;;7.38;2.00;;;;;;;4.06;82.94;102475.03;5013139;28;20036;-81
2023/03/04 04:22:17;;;;;;;8.20;1.88;;;;;;;4.04;82.98;102462.16;5012815;28;20034;-81
2023/03/04 04:24:42;;;;;;;4.35;1.67;;;;;;;4.05;82.66;102469.03;5011932;28;20033;-81
2023/03/04 04:27:08;;;;;;;9.20;2.38;;;;;;;4.05;82.77;102474.19;5012281;28;20457;-81
2023/03/04 04:29:33;;;;;;;9.82;2.40;;;;;;;4.04;81.84;102472.44;5012590;28;20085;-82
2023/03/04 04:31:58;;;;;;;7.68;2.00;;;;;;;3.99;82.06;102459.41;5011687;28;20101;-81
2023/03/04 04:34:24;;;;;;;6.68;2.20;;;;;;;4.02;81.61;102463.78;5027075;23;20406;-81
2023/03/04 04:36:50;;;;;;;6.38;2.05;;;;;;;4.01;81.87;102467.16;5019984;28;20121;-81
2023/03/04 04:39:16;;;;;;;5.53;2.00;;;;;;;4.02;81.68;102466.34;5011812;28;20453;-81
2023/03/04 04:41:43;;;;;;;7.20;2.05;;;;;;;4.01;81.66;102464.59;5012073;28;20130;-81
2023/03/04 04:44:09;;;;;;;;;;;;;;;4.01;82.07;102477.44;5012105;28;20057;-81
2023/03/04 04:46:35;;;;;;;5.65;1.95;;;;;;;3.99;81.91;102477.41;5012360;28;19945;-81
2023/03/04 04:49:00;;;;;;;5.77;1.87;;;;;;;4.00;82.00;102480.81;5012520;28;20374;-81
2023/03/04 04:51:27;;;;;;;4.45;1.70;;;;;;;4.00;82.32;102484.25;5014700;28;20280;-81
2023/03/04 04:53:52;;;;;;;5.13;1.90;;;;;;;3.99;82.27;102479.06;5015899;28;20021;-81
2023/03/04 04:56:25;;;;;;;5.05;1.63;;;;;;;4.01;82.19;102480.88;5016217;28;20033;-81
2023/03/04 04:58:51;;;;;;;6.72;1.60;;;;;;;4.02;81.79;102480.06;5015195;28;20548;-81
2023/03/04 05:01:16;;;;;;;3.20;1.42;;;;;;;3.99;81.86;102471.38;5016399;28;20030;-81
2023/03/04 05:03:41;;;;;;;2.17;1.30;;;;;;;4.05;81.48;102484.47;5016385;28;20021;-81
2023/03/04 05:06:08;;;;;;;1.92;1.00;;;;;;;3.99;81.87;102461.97;5014782;28;20447;-81
2023/03/04 05:08:34;;;;;;;3.67;1.48;;;;;;;4.06;81.61;102475.03;5016020;28;20026;-81
2023/03/04 05:11:16;;;;;;;1.50;1.20;;;;;;;4.07;82.13;102475.09;5015479;28;20037;-81
2023/03/04 05:13:41;;;;;;;2.92;1.30;;;;;;;4.06;81.78;102470.78;5015335;28;20494;-81
2023/03/04 05:16:07;;;;;;;5.07;1.65;;;;;;;4.06;81.79;102478.47;5015960;28;20034;-81
2023/03/04 05:18:33;;;;;;;2.03;1.13;;;;;;;4.03;81.54;102462.97;5015910;28;20072;-81
2023/03/04 05:21:00;;;;;;;4.53;1.40;;;;;;;4.08;82.15;102476.84;5015505;28;20050;-81
2023/03/04 05:23:28;;;;;;;7.20;2.00;;;;;;;4.08;81.77;102478.56;5015554;28;20030;-82
2023/03/04 05:25:53;;;;;;;5.18;1.90;;;;;;;4.07;81.85;102480.22;5015610;28;20025;-81
2023/03/04 05:28:19;;;;;;;7.20;2.47;;;;;;;4.04;81.68;102477.56;5014961;28;20029;-81
2023/03/04 05:30:45;;;;;;;9.07;2.50;;;;;;;4.02;82.07;102474.06;5015759;28;20030;-81
2023/03/04 05:33:12;;;;;;;12.05;2.35;;;;;;;4.00;81.92;102473.13;5033399;28;20099;-82
2023/03/04 05:35:39;;;;;;;6.25;2.22;;;;;;;3.94;82.42;102460.91;5034359;28;20033;-81
2023/03/04 05:38:05;;;;;;;;;;;;;;;3.99;81.88;102481.63;5035413;28;20034;-81
2023/03/04 05:40:34;;;;;;;13.85;2.53;;;;;;;3.97;81.86;102484.16;5034474;28;19913;-81
2023/03/04 05:42:59;;;;;;;7.68;2.05;;;;;;;3.98;82.04;102483.34;5034973;28;20381;-81
2023/03/04 05:45:27;;;;;;;7.55;2.28;;;;;;;3.99;81.95;102487.66;5035022;28;20025;-81
2023/03/04 05:47:53;;;;;;;7.72;2.28;;;;;;;3.96;82.60;102481.50;5034238;28;20025;-81
2023/03/04 05:50:21;;;;;;;8.07;2.05;;;;;;;3.93;82.37;102479.72;5035476;28;20128;-81
2023/03/04 05:52:46;;;;;;;7.40;2.03;;;;;;;3.93;82.11;102486.56;5034719;28;20400;-81
2023/03/04 05:55:12;;;;;;;8.98;2.20;;;;;;;3.94;82.79;102490.88;5034246;28;20029;-81
2023/03/04 05:57:37;;;;;;;7.07;2.20;;;;;;;3.93;82.90;102492.56;5034998;28;20083;-81
2023/03/04 06:00:04;;;;;;;6.40;2.00;;;;;;;3.93;83.40;102489.13;5034225;28;20036;-81
2023/03/04 06:02:32;;;;;;;;;;;;;;;3.86;83.58;102486.31;5033535;28;20052;-81
2023/03/04 06:04:58;;;;;;;10.88;2.28;;;;;;;3.88;84.98;102496.66;5034135;28;20369;-81
2023/03/04 06:07:23;;;;;;;6.45;1.90;;;;;;;3.87;84.76;102492.34;5034585;28;20037;-81
2023/03/04 06:09:48;;;;;;;8.60;2.28;;;;;;;3.88;85.13;102495.75;5033639;28;20029;-81
2023/03/04 06:12:14;;;;;;;6.55;2.10;;;;;;;3.82;86.10;102492.16;5034873;28;20071;-81
2023/03/04 06:14:39;;;;;;;10.13;2.00;;;;;;;3.82;85.94;102493.81;5034787;28;20049;-82
2023/03/04 06:17:04;;;;;;;5.82;2.20;;;;;;;3.81;85.83;102487.84;5033266;28;20065;-81
2023/03/04 06:19:30;;;;;;;4.85;1.52;;;;;;;3.84;86.07;102493.06;5034513;28;20021;-81
2023/03/04 06:21:55;;;;;;;8.05;1.90;;;;;;;3.81;86.45;102492.97;5034068;28;20116;-81
2023/03/04 06:24:20;;;;;;;6.38;1.80;;;;;;;3.80;85.93;102491.22;5033718;28;20091;-82
2023/03/04 06:26:45;;;;;;;3.70;1.63;;;;;;;3.76;86.07;102479.06;5032579;28;20025;-80
2023/03/04 06:29:11;;;;;;;8.25;2.00;;;;;;;3.84;85.94;102495.63;5014757;28;20069;-82
2023/03/04 06:31:36;;;;;;;5.05;2.00;;;;;;;3.84;85.98;102503.34;5014007;28;20026;-81
2023/03/04 06:34:02;;;;;;;4.95;1.77;;;;;;;3.85;85.92;102502.53;5013843;28;20046;-81
2023/03/04 06:36:27;;;;;;;1.88;1.67;;;;;;;3.86;85.46;102509.41;5014511;28;20022;-81
2023/03/04 06:38:55;;;;;;;3.63;1.60;;;;;;;3.84;86.32;102502.47;5013418;28;20064;-82
2023/03/04 06:41:20;;;;;;;4.05;1.65;;;;;;;3.79;86.07;102496.28;5014521;28;20099;-81
2023/03/04 06:43:48;;;;;;;2.58;1.60;;;;;;;3.86;86.20;102509.41;5012950;28;20458;-81
2023/03/04 06:46:14;;;;;;;5.28;1.70;;;;;;;3.84;86.67;102505.91;5014529;28;20084;-81
2023/03/04 06:48:42;;;;;;;4.65;1.77;;;;;;;3.81;87.52;102508.38;5013946;28;20466;-81
2023/03/04 06:51:09;;;;;;;4.47;1.80;;;;;;;3.84;86.92;102503.34;5013143;28;20033;-82
2023/03/04 06:53:35;;;;;;;6.95;2.00;;;;;;;3.83;87.93;102514.44;5013880;28;20048;-81
2023/03/04 06:56:01;;;;;;;4.43;1.80;;;;;;;3.81;88.79;102510.06;5026417;28;20025;-81
2023/03/04 06:58:26;;;;;;;3.17;1.77;;;;;;;3.81;88.46;102515.19;5033031;28;20478;-81
2023/03/04 07:01:21;;;;;;;3.08;1.70;;;;;;;3.81;88.57;102516.09;5033794;28;20044;-81
2023/03/04 07:03:47;;;;;;;3.50;1.80;;;;;;;3.78;90.38;102520.19;5033340;28;20495;-82
2023/03/04 07:06:15;;;;;;;3.33;1.80;;;;;;;3.78;89.73;102518.53;5032652;28;20140;-81
2023/03/04 07:08:41;;;;;;;4.25;1.60;;;;;;;3.78;89.65;102521.09;5033818;28;20053;-83
2023/03/04 07:11:07;;;;;;;5.23;2.00;;;;;;;3.76;91.14;102520.16;5033139;28;20032;-83
2023/03/04 07:13:34;;;;;;;7.28;1.90;;;;;;;3.74;91.91;102518.34;5032790;28;20029;-84
2023/03/04 07:16:00;;;;;;;6.15;2.03;;;;;;;3.74;92.19;102519.19;5033038;28;20469;-84
2023/03/04 07:18:31;;;;;;;4.53;1.85;;;;;;;3.73;91.82;102514.03;5033301;28;20029;-82
2023/03/04 07:27:44;;;;;;;2.50;1.40;;;;;;;3.88;89.77;102536.84;5011708;28;20275;-77
2023/03/04 07:30:24;;;;;;;2.58;1.10;;;;;;;3.90;89.43;102533.53;5013641;28;20116;-82
2023/03/04 07:32:49;;;;;;;1.58;1.20;;;;;;;3.86;89.88;102519.69;5012587;28;20066;-81
2023/03/04 07:35:17;;;;;;;2.08;1.50;;;;;;;3.94;89.79;102540.56;5012843;28;20540;-82
2023/03/04 07:37:58;;;;;;;2.13;1.30;;;;;;;3.91;89.46;102527.56;5013346;28;20022;-82
2023/03/04 07:40:23;;;;;;;2.28;1.35;;;;;;;4.03;89.65;102537.47;5012784;28;20109;-82
2023/03/04 07:43:06;;;;;;;1.35;1.25;;;;;;;4.01;89.66;102533.97;5013267;28;20049;-82
2023/03/04 07:45:40;;;;;;;1.10;0.90;;;;;;;3.96;89.22;102531.22;5013609;28;20115;-83
2023/03/04 07:48:22;;;;;;;1.58;1.00;;;;;;;4.11;89.28;102559.19;5011991;28;20029;-82
2023/03/04 07:51:02;;;;;;;1.83;1.00;;;;;;;4.05;89.52;102533.28;5012951;28;20029;-83
2023/03/04 07:53:27;;;;;;;2.45;1.38;;;;;;;4.07;89.07;102539.31;5012930;28;20022;-82
2023/03/04 07:55:52;;;;;;;1.42;1.10;;;;;;;4.17;89.46;102549.16;5011901;28;20072;-82
2023/03/04 07:58:18;;;;;;;2.15;1.17;;;;;;;4.21;88.97;102550.16;5013213;28;20025;-82
2023/03/04 08:00:44;;;;;;;2.57;1.70;;;;;;;4.25;88.83;102554.59;5013441;28;20021;-82
2023/03/04 08:03:09;;;;;;;1.50;1.40;;;;;;;4.29;88.83;102558.16;5012540;28;20545;-82
2023/03/04 08:05:40;;;;;;;3.03;2.13;;;;;;;4.28;89.43;102549.56;5012737;28;20065;-82
2023/03/04 08:08:06;;;;;;;3.47;2.20;;;;;;;4.35;88.88;102555.81;5012381;28;20152;-82
2023/03/04 08:10:31;;;;;;;7.60;2.53;;;;;;;4.37;88.92;102555.88;5013615;28;20723;-83
2023/03/04 08:12:56;;;;;;;2.95;2.13;;;;;;;4.38;88.69;102553.38;5012510;28;20132;-82
2023/03/04 08:15:21;;;;;;;4.68;2.45;;;;;;;4.42;88.91;102550.09;5012102;28;20041;-83
2023/03/04 08:17:47;;;;;;;2.85;1.83;;;;;;;4.45;89.40;102552.78;5012886;28;20025;-83
2023/03/04 08:20:12;;;;;;;4.13;1.80;;;;;;;4.52;89.31;102563.28;5013198;28;20497;-84
2023/03/04 08:22:37;;;;;;;3.33;1.95;;;;;;;4.51;88.59;102549.56;5012228;28;20032;-83
2023/03/04 08:25:03;;;;;;;3.92;1.90;;;;;;;4.59;88.79;102561.00;5013602;28;20080;-84
2023/03/04 08:27:31;;;;;;;5.35;2.22;;;;;;;4.62;88.05;102549.94;5016860;28;20029;-84
2023/03/04 08:30:05;;;;;;;2.72;2.00;;;;;;;4.63;87.96;102546.56;5014780;28;20410;-83
2023/03/04 08:32:31;;;;;;;4.00;2.15;;;;;;;4.77;88.27;102553.09;5016908;28;20382;-84
2023/03/04 08:35:05;;;;;;;3.33;2.20;;;;;;;4.82;88.14;102550.69;5016102;28;20042;-84
2023/03/04 08:37:31;;;;;;;3.50;2.00;;;;;;;4.94;88.27;102557.97;5016045;28;20021;-84
2023/03/04 08:40:02;;;;;;;4.27;2.30;;;;;;;5.01;88.12;102557.38;5017782;28;20041;-83
2023/03/04 08:42:28;;;;;;;4.40;2.10;;;;;;;5.05;87.52;102556.66;5015907;28;20034;-84
2023/03/04 08:44:53;;;;;;;5.80;2.03;;;;;;;5.14;87.55;102558.66;5015612;28;20585;-84
2023/03/04 08:47:18;;;;;;;7.35;2.17;;;;;;;5.17;87.40;102563.91;5016347;28;20470;-81
2023/03/04 08:49:44;;;;;;;6.50;1.95;;;;;;;5.24;87.97;102570.16;5022855;23;20119;-81
2023/03/04 08:52:09;;;;;;;6.72;2.22;;;;;;;5.29;87.20;102560.91;5015201;28;20116;-82
2023/03/04 08:54:34;;;;;;;7.95;2.40;;;;;;;5.34;87.01;102559.34;5016135;28;20509;-82
2023/03/04 08:57:00;;;;;;;8.02;2.33;;;;;;;5.36;86.14;102562.88;5008995;28;20041;-81
2023/03/04 08:59:25;;;;;;;6.47;2.20;;;;;;;5.38;86.42;102560.31;4995757;28;20092;-82
2023/03/04 09:01:50;;;;;;;5.40;2.10;;;;;;;5.46;86.73;102558.88;4996008;28;20041;-81
2023/03/04 09:04:16;;;;;;;5.03;2.17;;;;;;;5.57;85.98;102556.69;4996602;28;20034;-81
2023/03/04 09:06:43;;;;;;;6.40;2.42;;;;;;;5.69;85.78;102554.50;4996918;28;20034;-88
2023/03/04 09:09:08;;;;;;;2.95;1.85;;;;;;;5.78;85.83;102550.47;4996751;28;20059;-81
2023/03/04 09:11:34;;;;;;;7.07;2.30;;;;;;;5.86;84.52;102549.00;4995899;28;20401;-80
2023/03/04 09:13:59;;;;;;;5.28;2.35;;;;;;;5.84;84.97;102542.94;4996452;28;20073;-80
2023/03/04 09:16:25;;;;;;;3.17;2.00;;;;;;;5.92;85.50;102556.03;4996212;28;20062;-81
2023/03/04 09:18:50;;;;;;;2.53;1.80;;;;;;;6.02;85.04;102542.69;4995251;28;20109;-80
2023/03/04 09:21:16;;;;;;;9.00;2.45;;;;;;;6.15;84.32;102538.78;4996148;28;20022;-80
2023/03/04 09:23:42;;;;;;;6.63;2.50;;;;;;;6.21;83.38;102541.50;4996566;28;20041;-81
2023/03/04 09:26:21;;;;;;;7.53;2.40;;;;;;;6.19;82.17;102527.72;4994897;28;20022;-81
2023/03/04 09:28:50;;;;;;;6.40;2.42;;;;;;;6.11;82.45;102527.50;4994810;28;20034;-81
2023/03/04 09:31:15;;;;;;;4.95;2.25;;;;;;;6.21;82.97;102530.34;4995396;28;20077;-83
2023/03/04 09:33:44;;;;;;;3.87;2.20;;;;;;;6.33;83.39;102521.25;4995231;28;20037;-84
2023/03/04 09:36:10;;;;;;;3.10;2.13;;;;;;;6.56;82.73;102526.22;4995861;28;20076;-83
2023/03/04 09:38:37;;;;;;;3.22;1.90;;;;;;;6.70;83.06;102528.31;4995809;28;20049;-84
2023/03/04 09:41:06;;;;;;;4.35;1.75;;;;;;;6.87;81.23;102531.34;4994868;28;20039;-84
2023/03/04 09:43:32;;;;;;;5.05;1.90;;;;;;;6.93;80.63;102529.81;5017668;23;20111;-83
2023/03/04 09:46:05;;;;;;;3.37;1.87;;;;;;;6.95;80.92;102520.41;5034965;28;20030;-86
2023/03/04 09:48:42;;;;;;;3.78;2.10;;;;;;;6.99;80.76;102525.63;5034242;28;20022;-83
2023/03/04 09:51:44;;;;;;;4.05;2.03;;;;;;;7.02;78.45;102528.31;5034489;28;20025;-83
2023/03/04 09:54:22;;;;;;;5.43;2.17;;;;;;;6.90;80.20;102529.72;5033962;28;20033;-83
2023/03/04 09:56:51;;;;;;;6.07;2.10;;;;;;;6.85;79.77;102527.84;5041645;23;20381;-83
2023/03/04 09:59:38;;;;;;;4.78;2.08;;;;;;;6.84;79.91;102529.56;5014075;28;20045;-83
2023/03/04 10:02:19;;;;;;;5.38;2.50;;;;;;;6.67;80.11;102530.78;5013713;28;20037;-88
2023/03/04 10:04:51;;;;;;;10.63;3.38;;;;;;;6.36;80.23;102533.34;5014534;28;20033;-84
2023/03/04 10:07:23;;;;;;;8.15;3.00;;;;;;;6.25;81.48;102538.22;5014700;28;20389;-83
2023/03/04 10:09:50;;;;;;;4.97;2.42;;;;;;;6.20;81.28;102539.75;5013783;28;20036;-84
2023/03/04 10:12:21;;;;;;;5.18;2.50;;;;;;;6.20;81.89;102526.88;5014622;28;20021;-84
2023/03/04 10:14:53;;;;;;;5.20;1.98;;;;;;;6.27;82.17;102521.09;5013834;28;20026;-85
2023/03/04 10:17:37;;;;;;;5.10;2.00;;;;;;;6.42;82.46;102530.09;5014224;28;20036;-85
2023/03/04 10:20:17;;;;;;;4.35;2.40;;;;;;;6.68;81.98;102527.38;5014593;28;20363;-84
2023/03/04 10:22:57;;;;;;;3.90;1.92;;;;;;;6.86;80.62;102527.03;5014107;28;20105;-84
2023/03/04 10:25:30;;;;;;;2.42;2.00;;;;;;;6.97;79.97;102519.59;5014433;28;20049;-84
2023/03/04 10:28:02;;;;;;;4.40;2.05;;;;;;;7.06;80.15;102533.59;5014162;28;20107;-84
2023/03/04 10:31:01;;;;;;;3.30;2.00;;;;;;;7.21;77.81;102522.78;5013266;28;20450;-84
2023/03/04 10:33:33;;;;;;;3.90;2.00;;;;;;;7.26;79.21;102521.19;5014412;28;20156;-84
2023/03/04 10:36:33;;;;;;;5.35;1.90;;;;;;;7.22;77.86;102519.38;5013392;28;20045;-84
2023/03/04 10:39:08;;;;;;;2.67;1.98;;;;;;;7.13;77.63;102521.72;4980857;28;20103;-84
2023/03/04 10:41:33;;;;;;;7.63;2.22;;;;;;;6.86;77.48;102522.75;5014486;28;20026;-84
2023/03/04 10:43:58;;;;;;;6.63;2.27;;;;;;;6.65;78.85;102513.56;5013275;28;20049;-83
2023/03/04 10:46:25;;;;;;;4.40;2.30;;;;;;;6.54;79.32;102504.66;5014070;28;20068;-84
2023/03/04 10:48:51;;;;;;;5.90;2.33;;;;;;;6.48;79.90;102507.94;5013338;28;20022;-83
2023/03/04 10:51:23;;;;;;;5.70;2.17;;;;;;;6.44;80.76;102512.94;5013495;28;20445;-84
2023/03/04 10:53:57;;;;;;;7.40;2.50;;;;;;;6.28;80.45;102509.06;5014604;28;20022;-84
2023/03/04 10:56:52;;;;;;;8.23;2.72;;;;;;;6.23;81.86;102515.81;5014256;28;20080;-84
2023/03/04 10:59:41;;;;;;;6.13;2.35;;;;;;;6.21;82.39;102515.72;5013345;28;20091;-83
2023/03/04 11:02:20;;;;;;;6.35;2.20;;;;;;;6.18;83.13;102511.38;5013924;28;20374;-83
2023/03/04 11:04:54;;;;;;;6.80;2.85;;;;;;;6.17;83.89;102509.63;5006553;28;20041;-85
2023/03/04 11:07:22;;;;;;;2.58;1.75;;;;;;;6.15;84.48;102507.84;5013888;28;20447;-85
2023/03/04 11:09:48;;;;;;;8.90;2.40;;;;;;;6.08;84.71;102511.94;5013102;28;20061;-84
2023/03/04 11:12:16;;;;;;;2.83;1.87;;;;;;;6.06;84.96;102510.13;5013409;28;20064;-84
2023/03/04 11:14:48;;;;;;;3.50;2.00;;;;;;;6.04;85.78;102502.34;5012592;28;20110;-84
2023/03/04 11:17:16;;;;;;;5.93;2.10;;;;;;;6.05;85.11;102501.50;5014112;28;20109;-84
2023/03/04 11:19:45;;;;;;;2.25;1.70;;;;;;;6.09;84.84;102495.63;5013158;28;20032;-85
2023/03/04 11:22:14;;;;;;;5.55;2.20;;;;;;;6.06;85.66;102487.81;5013529;28;20479;-84
2023/03/04 11:24:42;;;;;;;6.03;2.97;;;;;;;6.08;86.04;102488.72;5013488;28;20025;-84
2023/03/04 11:27:22;;;;;;;6.30;2.95;;;;;;;6.10;85.76;102491.34;5012580;28;20065;-84
2023/03/04 11:29:57;;;;;;;4.50;2.55;;;;;;;6.17;85.94;102490.72;5013144;28;20025;-85
2023/03/04 11:32:42;;;;;;;4.43;2.50;;;;;;;6.27;86.05;102481.53;5012824;28;20424;-85
2023/03/04 11:35:25;;;;;;;2.70;2.17;;;;;;;6.40;86.32;102477.59;5013372;28;20022;-85
2023/03/04 11:37:57;;;;;;;2.63;2.15;;;;;;;6.56;87.01;102478.91;5013214;28;20026;-84
2023/03/04 11:40:35;;;;;;;3.83;2.20;;;;;;;6.76;86.57;102479.44;5012952;28;20044;-88
2023/03/04 11:43:06;;;;;;;4.72;2.30;;;;;;;6.95;85.85;102475.63;5013734;28;20017;-85
2023/03/04 11:45:46;;;;;;;2.42;2.22;;;;;;;7.08;85.59;102475.13;5013435;28;20062;-85
2023/03/04 11:48:12;;;;;;;3.83;2.15;;;;;;;7.13;84.74;102475.25;5012494;28;20026;-85